sensor_id;sensor_type;location;lat;lon;timestamp;temperature;humidity
25438;DHT22;13364;49.084;9.978;2024-02-15T05:02:14;9.90;97.50
25438;DHT22;13364;49.084;9.978;2024-02-15T05:04:41;9.90;97.50
25438;DHT22;13364;49.084;9.978;2024-02-15T05:07:10;9.90;97.40
25438;DHT22;13364;49.084;9.978;2024-02-15T05:09:37;9.90;97.30
25438;DHT22;13364;49.084;9.978;2024-02-15T05:12:04;9.90;97.20
25438;DHT22;13364;49.084;9.978;2024-02-15T05:14:32;10.00;97.20
25438;DHT22;13364;49.084;9.978;2024-02-15T05:16:59;10.00;97.00
25438;DHT22;13364;49.084;9.978;2024-02-15T05:19:27;10.00;97.00
25438;DHT22;13364;49.084;9.978;2024-02-15T05:21:54;10.00;96.90
25438;DHT22;13364;49.084;9.978;2024-02-15T05:24:22;10.00;96.80
25438;DHT22;13364;49.084;9.978;2024-02-15T05:26:49;10.00;96.70
25438;DHT22;13364;49.084;9.978;2024-02-15T05:29:17;10.00;96.60
25438;DHT22;13364;49.084;9.978;2024-02-15T05:31:44;10.00;96.50
25438;DHT22;13364;49.084;9.978;2024-02-15T05:34:11;10.10;96.40
25438;DHT22;13364;49.084;9.978;2024-02-15T05:36:39;10.10;96.30
25438;DHT22;13364;49.084;9.978;2024-02-15T05:39:06;10.10;96.20
25438;DHT22;13364;49.084;9.978;2024-02-15T05:41:34;10.10;96.20
25438;DHT22;13364;49.084;9.978;2024-02-15T05:44:02;10.10;96.10
25438;DHT22;13364;49.084;9.978;2024-02-15T05:46:33;10.10;96.00
25438;DHT22;13364;49.084;9.978;2024-02-15T05:49:03;10.20;95.80
25438;DHT22;13364;49.084;9.978;2024-02-15T05:51:31;10.20;95.70
25438;DHT22;13364;49.084;9.978;2024-02-15T05:54:00;10.20;95.50
25438;DHT22;13364;49.084;9.978;2024-02-15T05:56:27;10.20;95.50
25438;DHT22;13364;49.084;9.978;2024-02-15T05:58:55;10.20;95.40
25438;DHT22;13364;49.084;9.978;2024-02-15T06:01:23;10.20;95.30
25438;DHT22;13364;49.084;9.978;2024-02-15T06:03:50;10.20;95.30
25438;DHT22;13364;49.084;9.978;2024-02-15T06:06:21;10.20;95.10
25438;DHT22;13364;49.084;9.978;2024-02-15T06:08:50;10.20;95.20
25438;DHT22;13364;49.084;9.978;2024-02-15T06:11:19;10.20;95.30
25438;DHT22;13364;49.084;9.978;2024-02-15T06:13:47;10.10;95.30
25438;DHT22;13364;49.084;9.978;2024-02-15T06:16:14;10.20;95.10
25438;DHT22;13364;49.084;9.978;2024-02-15T06:18:40;10.10;95.20
25438;DHT22;13364;49.084;9.978;2024-02-15T06:21:08;10.10;95.40
25438;DHT22;13364;49.084;9.978;2024-02-15T06:23:35;10.10;95.50
25438;DHT22;13364;49.084;9.978;2024-02-15T06:26:04;10.10;95.50
25438;DHT22;13364;49.084;9.978;2024-02-15T06:28:30;10.10;95.40
25438;DHT22;13364;49.084;9.978;2024-02-15T06:31:16;10.10;95.50
25438;DHT22;13364;49.084;9.978;2024-02-15T06:34:01;10.20;95.30
25438;DHT22;13364;49.084;9.978;2024-02-15T06:39:33;10.10;95.00
25438;DHT22;13364;49.084;9.978;2024-02-15T06:42:12;10.10;94.90
25438;DHT22;13364;49.084;9.978;2024-02-15T06:44:42;10.10;94.90
25438;DHT22;13364;49.084;9.978;2024-02-15T06:47:09;10.20;94.90
25438;DHT22;13364;49.084;9.978;2024-02-15T06:49:41;10.20;94.70
25438;DHT22;13364;49.084;9.978;2024-02-15T06:52:08;10.10;94.70
25438;DHT22;13364;49.084;9.978;2024-02-15T06:54:35;10.20;94.70
25438;DHT22;13364;49.084;9.978;2024-02-15T06:57:03;10.20;94.50
25438;DHT22;13364;49.084;9.978;2024-02-15T06:59:31;10.20;94.40
25438;DHT22;13364;49.084;9.978;2024-02-15T07:01:59;10.20;94.40
25438;DHT22;13364;49.084;9.978;2024-02-15T07:04:26;10.20;94.20
25438;DHT22;13364;49.084;9.978;2024-02-15T07:06:53;10.20;94.10
25438;DHT22;13364;49.084;9.978;2024-02-15T07:09:23;10.20;94.10
25438;DHT22;13364;49.084;9.978;2024-02-15T07:11:54;10.20;94.10
25438;DHT22;13364;49.084;9.978;2024-02-15T07:14:21;10.10;94.10
25438;DHT22;13364;49.084;9.978;2024-02-15T07:16:49;10.10;94.10
25438;DHT22;13364;49.084;9.978;2024-02-15T07:19:18;10.20;94.00
25438;DHT22;13364;49.084;9.978;2024-02-15T07:21:45;10.20;93.90
25438;DHT22;13364;49.084;9.978;2024-02-15T07:24:13;10.20;93.90
25438;DHT22;13364;49.084;9.978;2024-02-15T07:26:40;10.20;93.80
25438;DHT22;13364;49.084;9.978;2024-02-15T07:29:07;10.20;93.80
25438;DHT22;13364;49.084;9.978;2024-02-15T07:31:35;10.20;93.90
25438;DHT22;13364;49.084;9.978;2024-02-15T07:34:03;10.20;93.70
25438;DHT22;13364;49.084;9.978;2024-02-15T07:36:30;10.20;93.80
25438;DHT22;13364;49.084;9.978;2024-02-15T07:38:57;10.20;93.70
25438;DHT22;13364;49.084;9.978;2024-02-15T07:41:27;10.20;93.60
25438;DHT22;13364;49.084;9.978;2024-02-15T07:43:54;10.20;93.80
25438;DHT22;13364;49.084;9.978;2024-02-15T07:46:22;10.20;93.70
25438;DHT22;13364;49.084;9.978;2024-02-15T07:48:51;10.20;93.50
25438;DHT22;13364;49.084;9.978;2024-02-15T07:51:19;10.20;93.60
25438;DHT22;13364;49.084;9.978;2024-02-15T07:53:47;10.20;93.60
25438;DHT22;13364;49.084;9.978;2024-02-15T07:56:15;10.30;93.50
25438;DHT22;13364;49.084;9.978;2024-02-15T07:58:48;10.30;93.20
25438;DHT22;13364;49.084;9.978;2024-02-15T08:01:20;10.30;93.30
25438;DHT22;13364;49.084;9.978;2024-02-15T08:03:52;10.30;93.20
25438;DHT22;13364;49.084;9.978;2024-02-15T08:06:21;10.30;93.30
25438;DHT22;13364;49.084;9.978;2024-02-15T08:08:50;10.20;93.20
25438;DHT22;13364;49.084;9.978;2024-02-15T08:11:19;10.20;93.20
25438;DHT22;13364;49.084;9.978;2024-02-15T08:13:47;10.20;93.30
25438;DHT22;13364;49.084;9.978;2024-02-15T08:16:18;10.20;93.40
25438;DHT22;13364;49.084;9.978;2024-02-15T08:18:45;10.30;93.10
25438;DHT22;13364;49.084;9.978;2024-02-15T08:21:13;10.30;93.10
25438;DHT22;13364;49.084;9.978;2024-02-15T08:23:41;10.40;93.20
25438;DHT22;13364;49.084;9.978;2024-02-15T08:26:09;10.40;93.30
25438;DHT22;13364;49.084;9.978;2024-02-15T08:28:38;10.50;93.10
25438;DHT22;13364;49.084;9.978;2024-02-15T08:31:05;10.60;92.80
25438;DHT22;13364;49.084;9.978;2024-02-15T08:33:31;10.60;92.90
25438;DHT22;13364;49.084;9.978;2024-02-15T08:35:59;10.70;92.50
25438;DHT22;13364;49.084;9.978;2024-02-15T08:38:28;10.70;92.60
25438;DHT22;13364;49.084;9.978;2024-02-15T08:40:55;10.80;92.20
25438;DHT22;13364;49.084;9.978;2024-02-15T08:43:22;10.90;92.50
25438;DHT22;13364;49.084;9.978;2024-02-15T08:45:49;11.00;91.80
25438;DHT22;13364;49.084;9.978;2024-02-15T08:48:17;11.10;91.40
25438;DHT22;13364;49.084;9.978;2024-02-15T08:50:44;11.20;90.60
25438;DHT22;13364;49.084;9.978;2024-02-15T08:53:12;11.30;90.50
25438;DHT22;13364;49.084;9.978;2024-02-15T08:55:41;11.50;90.20
25438;DHT22;13364;49.084;9.978;2024-02-15T08:58:08;11.70;89.80
25438;DHT22;13364;49.084;9.978;2024-02-15T09:00:36;11.80;89.30
25438;DHT22;13364;49.084;9.978;2024-02-15T09:03:04;12.10;88.50
25438;DHT22;13364;49.084;9.978;2024-02-15T09:05:31;12.20;87.30
25438;DHT22;13364;49.084;9.978;2024-02-15T09:07:58;12.40;87.40
25438;DHT22;13364;49.084;9.978;2024-02-15T09:10:24;12.60;86.10
25438;DHT22;13364;49.084;9.978;2024-02-15T09:12:52;12.80;85.00
25438;DHT22;13364;49.084;9.978;2024-02-15T09:15:19;13.00;84.40
25438;DHT22;13364;49.084;9.978;2024-02-15T09:17:48;13.10;84.10
25438;DHT22;13364;49.084;9.978;2024-02-15T09:20:16;13.30;82.80
25438;DHT22;13364;49.084;9.978;2024-02-15T09:22:50;13.40;81.90
25438;DHT22;13364;49.084;9.978;2024-02-15T09:25:18;13.50;81.10
25438;DHT22;13364;49.084;9.978;2024-02-15T09:27:45;13.60;80.40
25438;DHT22;13364;49.084;9.978;2024-02-15T09:30:13;13.70;79.40
25438;DHT22;13364;49.084;9.978;2024-02-15T09:32:40;13.80;79.70
25438;DHT22;13364;49.084;9.978;2024-02-15T09:35:08;13.90;79.60
25438;DHT22;13364;49.084;9.978;2024-02-15T09:37:36;14.10;79.40
25438;DHT22;13364;49.084;9.978;2024-02-15T09:40:10;14.20;77.90
25438;DHT22;13364;49.084;9.978;2024-02-15T09:42:38;14.40;77.70
25438;DHT22;13364;49.084;9.978;2024-02-15T09:45:07;14.50;76.30
25438;DHT22;13364;49.084;9.978;2024-02-15T09:47:38;14.50;75.10
25438;DHT22;13364;49.084;9.978;2024-02-15T09:50:14;14.60;75.70
25438;DHT22;13364;49.084;9.978;2024-02-15T09:52:45;14.80;75.50
25438;DHT22;13364;49.084;9.978;2024-02-15T09:55:12;14.90;74.90
25438;DHT22;13364;49.084;9.978;2024-02-15T09:57:45;15.00;73.50
25438;DHT22;13364;49.084;9.978;2024-02-15T10:00:16;15.00;71.90
25438;DHT22;13364;49.084;9.978;2024-02-15T10:02:46;15.00;72.00
25438;DHT22;13364;49.084;9.978;2024-02-15T10:05:13;15.00;72.20
25438;DHT22;13364;49.084;9.978;2024-02-15T10:07:41;14.90;71.60
25438;DHT22;13364;49.084;9.978;2024-02-15T10:12:49;14.90;71.40
25438;DHT22;13364;49.084;9.978;2024-02-15T10:15:27;15.00;70.60
25438;DHT22;13364;49.084;9.978;2024-02-15T10:20:30;15.10;71.00
25438;DHT22;13364;49.084;9.978;2024-02-15T10:25:36;15.20;70.80
25438;DHT22;13364;49.084;9.978;2024-02-15T10:28:08;15.20;71.20
25438;DHT22;13364;49.084;9.978;2024-02-15T10:30:37;15.30;69.50
25438;DHT22;13364;49.084;9.978;2024-02-15T10:33:04;15.40;69.60
25438;DHT22;13364;49.084;9.978;2024-02-15T10:35:32;15.40;70.70
25438;DHT22;13364;49.084;9.978;2024-02-15T10:38:11;15.50;70.70
25438;DHT22;13364;49.084;9.978;2024-02-15T10:40:42;15.60;69.80
25438;DHT22;13364;49.084;9.978;2024-02-15T10:43:10;15.80;69.70
25438;DHT22;13364;49.084;9.978;2024-02-15T10:45:40;15.80;68.90
25438;DHT22;13364;49.084;9.978;2024-02-15T10:48:09;15.90;68.60
25438;DHT22;13364;49.084;9.978;2024-02-15T10:50:39;16.00;68.40
25438;DHT22;13364;49.084;9.978;2024-02-15T10:53:21;16.10;68.30
25438;DHT22;13364;49.084;9.978;2024-02-15T10:58:44;16.20;67.90
25438;DHT22;13364;49.084;9.978;2024-02-15T11:01:17;16.30;67.20
25438;DHT22;13364;49.084;9.978;2024-02-15T11:03:57;16.40;67.00
25438;DHT22;13364;49.084;9.978;2024-02-15T11:06:27;16.50;66.30
25438;DHT22;13364;49.084;9.978;2024-02-15T11:09:01;16.50;66.90
25438;DHT22;13364;49.084;9.978;2024-02-15T11:11:30;16.50;66.40
25438;DHT22;13364;49.084;9.978;2024-02-15T11:14:26;16.60;65.90
25438;DHT22;13364;49.084;9.978;2024-02-15T11:16:54;16.50;65.90
25438;DHT22;13364;49.084;9.978;2024-02-15T11:22:08;16.70;65.90
25438;DHT22;13364;49.084;9.978;2024-02-15T11:24:37;16.80;65.40
25438;DHT22;13364;49.084;9.978;2024-02-15T11:27:05;16.90;64.80
25438;DHT22;13364;49.084;9.978;2024-02-15T11:29:51;17.10;64.90
25438;DHT22;13364;49.084;9.978;2024-02-15T11:32:41;17.20;64.70
25438;DHT22;13364;49.084;9.978;2024-02-15T11:35:13;17.30;63.40
25438;DHT22;13364;49.084;9.978;2024-02-15T11:42:58;17.50;62.00
25438;DHT22;13364;49.084;9.978;2024-02-15T11:45:27;17.50;62.60
25438;DHT22;13364;49.084;9.978;2024-02-15T11:48:14;17.60;62.20
25438;DHT22;13364;49.084;9.978;2024-02-15T11:50:41;17.70;63.00
25438;DHT22;13364;49.084;9.978;2024-02-15T11:53:09;17.80;62.60
25438;DHT22;13364;49.084;9.978;2024-02-15T11:55:39;17.80;61.40
25438;DHT22;13364;49.084;9.978;2024-02-15T11:58:08;17.80;60.50
25438;DHT22;13364;49.084;9.978;2024-02-15T12:00:38;17.70;61.40
25438;DHT22;13364;49.084;9.978;2024-02-15T12:03:25;17.80;62.00
25438;DHT22;13364;49.084;9.978;2024-02-15T12:06:27;17.90;61.00
25438;DHT22;13364;49.084;9.978;2024-02-15T12:09:18;18.00;61.80
25438;DHT22;13364;49.084;9.978;2024-02-15T12:12:05;18.10;60.70
25438;DHT22;13364;49.084;9.978;2024-02-15T12:14:57;18.20;59.80
25438;DHT22;13364;49.084;9.978;2024-02-15T12:17:42;18.10;59.90
25438;DHT22;13364;49.084;9.978;2024-02-15T12:20:27;18.10;60.70
25438;DHT22;13364;49.084;9.978;2024-02-15T12:22:55;18.20;60.60
25438;DHT22;13364;49.084;9.978;2024-02-15T12:25:22;18.20;59.60
25438;DHT22;13364;49.084;9.978;2024-02-15T12:27:56;18.20;60.30
25438;DHT22;13364;49.084;9.978;2024-02-15T12:30:23;18.30;60.10
25438;DHT22;13364;49.084;9.978;2024-02-15T12:32:52;18.30;58.40
25438;DHT22;13364;49.084;9.978;2024-02-15T12:35:35;18.30;59.00
25438;DHT22;13364;49.084;9.978;2024-02-15T12:38:03;18.40;60.10
25438;DHT22;13364;49.084;9.978;2024-02-15T12:40:37;18.40;59.40
25438;DHT22;13364;49.084;9.978;2024-02-15T12:43:06;18.50;59.90
25438;DHT22;13364;49.084;9.978;2024-02-15T12:45:35;18.50;59.90
25438;DHT22;13364;49.084;9.978;2024-02-15T12:48:04;18.60;59.40
25438;DHT22;13364;49.084;9.978;2024-02-15T12:50:33;18.60;59.50
25438;DHT22;13364;49.084;9.978;2024-02-15T12:53:01;18.60;59.30
25438;DHT22;13364;49.084;9.978;2024-02-15T12:55:34;18.50;58.70
25438;DHT22;13364;49.084;9.978;2024-02-15T12:58:03;18.50;58.90
25438;DHT22;13364;49.084;9.978;2024-02-15T13:00:31;18.40;59.90
25438;DHT22;13364;49.084;9.978;2024-02-15T13:03:02;18.40;59.80
25438;DHT22;13364;49.084;9.978;2024-02-15T13:05:30;18.50;60.10
25438;DHT22;13364;49.084;9.978;2024-02-15T13:07:58;18.50;59.80
25438;DHT22;13364;49.084;9.978;2024-02-15T13:10:25;18.50;59.80
25438;DHT22;13364;49.084;9.978;2024-02-15T13:12:53;18.40;59.80
25438;DHT22;13364;49.084;9.978;2024-02-15T13:15:20;18.50;60.30
25438;DHT22;13364;49.084;9.978;2024-02-15T13:17:49;18.50;59.50
25438;DHT22;13364;49.084;9.978;2024-02-15T13:20:18;18.50;61.00
25438;DHT22;13364;49.084;9.978;2024-02-15T13:22:47;18.60;61.80
25438;DHT22;13364;49.084;9.978;2024-02-15T13:25:17;18.70;59.90
25438;DHT22;13364;49.084;9.978;2024-02-15T13:27:44;18.70;60.70
25438;DHT22;13364;49.084;9.978;2024-02-15T13:30:13;18.80;61.90
25438;DHT22;13364;49.084;9.978;2024-02-15T13:32:40;18.90;60.60
25438;DHT22;13364;49.084;9.978;2024-02-15T13:35:08;19.00;61.00
25438;DHT22;13364;49.084;9.978;2024-02-15T13:37:47;19.00;60.20
25438;DHT22;13364;49.084;9.978;2024-02-15T13:40:16;19.10;60.00
25438;DHT22;13364;49.084;9.978;2024-02-15T13:42:47;19.10;59.90
25438;DHT22;13364;49.084;9.978;2024-02-15T13:45:21;19.00;58.90
25438;DHT22;13364;49.084;9.978;2024-02-15T13:47:51;18.90;59.10
25438;DHT22;13364;49.084;9.978;2024-02-15T13:50:23;18.90;58.80
25438;DHT22;13364;49.084;9.978;2024-02-15T13:52:50;18.90;59.20
25438;DHT22;13364;49.084;9.978;2024-02-15T13:55:18;18.70;59.20
25438;DHT22;13364;49.084;9.978;2024-02-15T13:57:46;18.60;59.70
25438;DHT22;13364;49.084;9.978;2024-02-15T14:00:17;18.50;59.80
25438;DHT22;13364;49.084;9.978;2024-02-15T14:02:57;18.30;59.40
25438;DHT22;13364;49.084;9.978;2024-02-15T14:05:26;18.10;60.20
25438;DHT22;13364;49.084;9.978;2024-02-15T14:07:57;18.10;60.70
25438;DHT22;13364;49.084;9.978;2024-02-15T14:10:28;18.00;60.50
25438;DHT22;13364;49.084;9.978;2024-02-15T14:12:55;17.90;60.80
25438;DHT22;13364;49.084;9.978;2024-02-15T14:15:25;17.90;61.30
25438;DHT22;13364;49.084;9.978;2024-02-15T14:17:52;17.70;60.20
25438;DHT22;13364;49.084;9.978;2024-02-15T14:20:19;17.60;61.00
25438;DHT22;13364;49.084;9.978;2024-02-15T14:22:49;17.50;61.70
25438;DHT22;13364;49.084;9.978;2024-02-15T14:25:22;17.40;61.70
25438;DHT22;13364;49.084;9.978;2024-02-15T14:27:49;17.30;62.90
25438;DHT22;13364;49.084;9.978;2024-02-15T14:30:16;17.30;63.30
25438;DHT22;13364;49.084;9.978;2024-02-15T14:33:01;17.20;63.90
25438;DHT22;13364;49.084;9.978;2024-02-15T14:35:36;17.20;63.80
25438;DHT22;13364;49.084;9.978;2024-02-15T14:38:07;17.10;63.60
25438;DHT22;13364;49.084;9.978;2024-02-15T14:40:40;17.10;63.70
25438;DHT22;13364;49.084;9.978;2024-02-15T14:43:12;17.10;63.90
25438;DHT22;13364;49.084;9.978;2024-02-15T14:45:45;17.10;64.10
25438;DHT22;13364;49.084;9.978;2024-02-15T14:48:13;17.10;64.00
25438;DHT22;13364;49.084;9.978;2024-02-15T14:50:41;17.00;64.00
25438;DHT22;13364;49.084;9.978;2024-02-15T14:53:08;16.90;64.30
25438;DHT22;13364;49.084;9.978;2024-02-15T14:55:36;16.90;64.30
25438;DHT22;13364;49.084;9.978;2024-02-15T14:58:09;16.70;64.20
25438;DHT22;13364;49.084;9.978;2024-02-15T15:00:40;16.60;65.10
25438;DHT22;13364;49.084;9.978;2024-02-15T15:03:09;16.50;65.10
25438;DHT22;13364;49.084;9.978;2024-02-15T15:05:42;16.50;65.30
25438;DHT22;13364;49.084;9.978;2024-02-15T15:08:28;16.40;65.60
25438;DHT22;13364;49.084;9.978;2024-02-15T15:11:13;16.30;66.10
25438;DHT22;13364;49.084;9.978;2024-02-15T15:13:59;16.30;66.50
25438;DHT22;13364;49.084;9.978;2024-02-15T15:16:26;16.20;66.70
25438;DHT22;13364;49.084;9.978;2024-02-15T15:18:54;16.20;66.80
25438;DHT22;13364;49.084;9.978;2024-02-15T15:21:22;16.20;66.80
25438;DHT22;13364;49.084;9.978;2024-02-15T15:23:54;16.20;66.50
25438;DHT22;13364;49.084;9.978;2024-02-15T15:26:22;16.10;66.70
25438;DHT22;13364;49.084;9.978;2024-02-15T15:28:49;16.00;66.70
25438;DHT22;13364;49.084;9.978;2024-02-15T15:31:16;15.90;67.10
25438;DHT22;13364;49.084;9.978;2024-02-15T15:33:44;15.80;67.10
25438;DHT22;13364;49.084;9.978;2024-02-15T15:36:11;15.70;67.50
25438;DHT22;13364;49.084;9.978;2024-02-15T15:38:38;15.60;67.30
25438;DHT22;13364;49.084;9.978;2024-02-15T15:41:09;15.60;67.30
25438;DHT22;13364;49.084;9.978;2024-02-15T15:43:36;15.50;67.70
25438;DHT22;13364;49.084;9.978;2024-02-15T15:46:04;15.50;67.80
25438;DHT22;13364;49.084;9.978;2024-02-15T15:48:32;15.40;68.20
25438;DHT22;13364;49.084;9.978;2024-02-15T15:51:00;15.40;68.20
25438;DHT22;13364;49.084;9.978;2024-02-15T15:53:31;15.30;68.40
25438;DHT22;13364;49.084;9.978;2024-02-15T15:56:00;15.30;68.70
25438;DHT22;13364;49.084;9.978;2024-02-15T15:58:27;15.20;68.70
25438;DHT22;13364;49.084;9.978;2024-02-15T16:00:54;15.20;68.90
25438;DHT22;13364;49.084;9.978;2024-02-15T16:03:21;15.10;68.80
25438;DHT22;13364;49.084;9.978;2024-02-15T16:05:50;15.00;69.20
25438;DHT22;13364;49.084;9.978;2024-02-15T16:08:17;15.00;69.40
25438;DHT22;13364;49.084;9.978;2024-02-15T16:10:43;14.90;69.60
25438;DHT22;13364;49.084;9.978;2024-02-15T16:13:12;14.90;69.60
25438;DHT22;13364;49.084;9.978;2024-02-15T16:15:39;14.70;70.00
25438;DHT22;13364;49.084;9.978;2024-02-15T16:18:07;14.70;70.10
25438;DHT22;13364;49.084;9.978;2024-02-15T16:20:34;14.60;70.30
25438;DHT22;13364;49.084;9.978;2024-02-15T16:23:01;14.50;70.60
25438;DHT22;13364;49.084;9.978;2024-02-15T16:25:28;14.50;70.80
25438;DHT22;13364;49.084;9.978;2024-02-15T16:27:55;14.40;71.10
25438;DHT22;13364;49.084;9.978;2024-02-15T16:30:22;14.40;71.30
25438;DHT22;13364;49.084;9.978;2024-02-15T16:32:49;14.30;71.40
25438;DHT22;13364;49.084;9.978;2024-02-15T16:35:16;14.30;71.50
25438;DHT22;13364;49.084;9.978;2024-02-15T16:37:47;14.20;71.90
25438;DHT22;13364;49.084;9.978;2024-02-15T16:40:14;14.00;72.00
25438;DHT22;13364;49.084;9.978;2024-02-15T16:42:42;13.90;72.50
25438;DHT22;13364;49.084;9.978;2024-02-15T16:45:11;13.90;72.80
25438;DHT22;13364;49.084;9.978;2024-02-15T16:47:40;13.80;73.00
25438;DHT22;13364;49.084;9.978;2024-02-15T16:50:12;13.80;73.20
25438;DHT22;13364;49.084;9.978;2024-02-15T16:52:40;13.70;73.40
25438;DHT22;13364;49.084;9.978;2024-02-15T16:55:10;13.60;73.90
25438;DHT22;13364;49.084;9.978;2024-02-15T16:57:37;13.50;74.30
25438;DHT22;13364;49.084;9.978;2024-02-15T17:00:05;13.40;74.70
25438;DHT22;13364;49.084;9.978;2024-02-15T17:02:34;13.30;74.90
25438;DHT22;13364;49.084;9.978;2024-02-15T17:05:02;13.30;75.00
25438;DHT22;13364;49.084;9.978;2024-02-15T17:07:31;13.20;75.20
25438;DHT22;13364;49.084;9.978;2024-02-15T17:09:57;13.10;75.30
25438;DHT22;13364;49.084;9.978;2024-02-15T17:12:24;13.10;75.70
25438;DHT22;13364;49.084;9.978;2024-02-15T17:14:51;13.00;75.90
25438;DHT22;13364;49.084;9.978;2024-02-15T17:17:18;13.00;76.00
25438;DHT22;13364;49.084;9.978;2024-02-15T17:19:45;12.90;76.20
25438;DHT22;13364;49.084;9.978;2024-02-15T17:22:13;12.90;76.50
25438;DHT22;13364;49.084;9.978;2024-02-15T17:24:41;12.80;76.80
25438;DHT22;13364;49.084;9.978;2024-02-15T17:27:08;12.70;77.10
25438;DHT22;13364;49.084;9.978;2024-02-15T17:29:35;12.70;77.60
25438;DHT22;13364;49.084;9.978;2024-02-15T17:32:02;12.60;77.80
25438;DHT22;13364;49.084;9.978;2024-02-15T17:34:28;12.60;78.00
25438;DHT22;13364;49.084;9.978;2024-02-15T17:36:57;12.50;78.20
25438;DHT22;13364;49.084;9.978;2024-02-15T17:39:27;12.50;78.50
25438;DHT22;13364;49.084;9.978;2024-02-15T17:41:53;12.40;78.70
25438;DHT22;13364;49.084;9.978;2024-02-15T17:44:20;12.40;78.80
25438;DHT22;13364;49.084;9.978;2024-02-15T17:46:48;12.30;79.00
25438;DHT22;13364;49.084;9.978;2024-02-15T17:49:16;12.30;79.10
25438;DHT22;13364;49.084;9.978;2024-02-15T17:51:43;12.30;79.10
25438;DHT22;13364;49.084;9.978;2024-02-15T17:54:12;12.30;79.20
25438;DHT22;13364;49.084;9.978;2024-02-15T17:56:39;12.20;79.40
25438;DHT22;13364;49.084;9.978;2024-02-15T17:59:06;12.20;79.50
25438;DHT22;13364;49.084;9.978;2024-02-15T18:01:36;12.10;79.70
25438;DHT22;13364;49.084;9.978;2024-02-15T18:04:05;12.00;79.90
25438;DHT22;13364;49.084;9.978;2024-02-15T18:06:33;12.00;80.00
25438;DHT22;13364;49.084;9.978;2024-02-15T18:09:00;11.90;80.40
25438;DHT22;13364;49.084;9.978;2024-02-15T18:11:27;11.90;80.70
25438;DHT22;13364;49.084;9.978;2024-02-15T18:13:54;11.90;80.60
25438;DHT22;13364;49.084;9.978;2024-02-15T18:16:21;11.80;80.70
25438;DHT22;13364;49.084;9.978;2024-02-15T18:18:49;11.80;80.70
25438;DHT22;13364;49.084;9.978;2024-02-15T18:21:16;11.80;80.70
25438;DHT22;13364;49.084;9.978;2024-02-15T18:23:43;11.80;80.70
25438;DHT22;13364;49.084;9.978;2024-02-15T18:26:12;11.80;80.90
25438;DHT22;13364;49.084;9.978;2024-02-15T18:28:39;11.80;81.00
25438;DHT22;13364;49.084;9.978;2024-02-15T18:31:05;11.70;81.00
25438;DHT22;13364;49.084;9.978;2024-02-15T18:33:35;11.70;80.90
25438;DHT22;13364;49.084;9.978;2024-02-15T18:36:07;11.60;81.30
25438;DHT22;13364;49.084;9.978;2024-02-15T18:38:35;11.50;81.80
25438;DHT22;13364;49.084;9.978;2024-02-15T18:41:02;11.40;82.20
25438;DHT22;13364;49.084;9.978;2024-02-15T18:43:35;11.40;82.50
25438;DHT22;13364;49.084;9.978;2024-02-15T18:46:02;11.30;82.80
25438;DHT22;13364;49.084;9.978;2024-02-15T18:48:31;11.30;83.00
25438;DHT22;13364;49.084;9.978;2024-02-15T18:50:58;11.30;83.00
25438;DHT22;13364;49.084;9.978;2024-02-15T18:53:25;11.30;82.90
25438;DHT22;13364;49.084;9.978;2024-02-15T18:55:52;11.30;82.90
25438;DHT22;13364;49.084;9.978;2024-02-15T18:58:21;11.30;82.90
25438;DHT22;13364;49.084;9.978;2024-02-15T19:00:52;11.30;83.00
25438;DHT22;13364;49.084;9.978;2024-02-15T19:03:24;11.40;82.90
25438;DHT22;13364;49.084;9.978;2024-02-15T19:05:52;11.30;82.80
25438;DHT22;13364;49.084;9.978;2024-02-15T19:08:19;11.30;82.60
25438;DHT22;13364;49.084;9.978;2024-02-15T19:10:46;11.20;82.90
25438;DHT22;13364;49.084;9.978;2024-02-15T19:13:13;11.20;83.20
25438;DHT22;13364;49.084;9.978;2024-02-15T19:15:40;11.20;83.30
25438;DHT22;13364;49.084;9.978;2024-02-15T19:18:07;11.20;83.20
25438;DHT22;13364;49.084;9.978;2024-02-15T19:20:37;11.20;83.30
25438;DHT22;13364;49.084;9.978;2024-02-15T19:23:04;11.10;83.40
25438;DHT22;13364;49.084;9.978;2024-02-15T19:25:34;11.10;83.50
25438;DHT22;13364;49.084;9.978;2024-02-15T19:28:01;11.00;83.70
25438;DHT22;13364;49.084;9.978;2024-02-15T19:30:32;11.00;83.60
25438;DHT22;13364;49.084;9.978;2024-02-15T19:32:59;11.00;83.70
25438;DHT22;13364;49.084;9.978;2024-02-15T19:35:26;10.90;84.00
25438;DHT22;13364;49.084;9.978;2024-02-15T19:37:53;10.80;84.40
25438;DHT22;13364;49.084;9.978;2024-02-15T19:40:20;10.80;84.60
25438;DHT22;13364;49.084;9.978;2024-02-15T19:42:47;10.70;84.90
25438;DHT22;13364;49.084;9.978;2024-02-15T19:45:16;10.60;85.30
25438;DHT22;13364;49.084;9.978;2024-02-15T19:47:46;10.50;85.70
25438;DHT22;13364;49.084;9.978;2024-02-15T19:50:13;10.60;85.70
25438;DHT22;13364;49.084;9.978;2024-02-15T19:52:42;10.60;86.00
25438;DHT22;13364;49.084;9.978;2024-02-15T19:55:10;10.50;86.30
25438;DHT22;13364;49.084;9.978;2024-02-15T19:57:37;10.50;86.40
25438;DHT22;13364;49.084;9.978;2024-02-15T20:00:04;10.40;86.40
25438;DHT22;13364;49.084;9.978;2024-02-15T20:02:34;10.50;86.40
25438;DHT22;13364;49.084;9.978;2024-02-15T20:05:02;10.50;86.30
25438;DHT22;13364;49.084;9.978;2024-02-15T20:07:29;10.50;86.40
25438;DHT22;13364;49.084;9.978;2024-02-15T20:09:56;10.50;86.20
25438;DHT22;13364;49.084;9.978;2024-02-15T20:12:23;10.50;86.00
25438;DHT22;13364;49.084;9.978;2024-02-15T20:14:50;10.40;86.20
25438;DHT22;13364;49.084;9.978;2024-02-15T20:17:17;10.40;86.40
25438;DHT22;13364;49.084;9.978;2024-02-15T20:19:44;10.40;86.60
25438;DHT22;13364;49.084;9.978;2024-02-15T20:22:11;10.30;86.60
25438;DHT22;13364;49.084;9.978;2024-02-15T20:24:39;10.30;86.90
25438;DHT22;13364;49.084;9.978;2024-02-15T20:27:06;10.30;86.90
25438;DHT22;13364;49.084;9.978;2024-02-15T20:29:33;10.30;87.10
25438;DHT22;13364;49.084;9.978;2024-02-15T20:32:01;10.30;87.40
25438;DHT22;13364;49.084;9.978;2024-02-15T20:34:28;10.20;87.40
25438;DHT22;13364;49.084;9.978;2024-02-15T20:36:55;10.30;87.50
25438;DHT22;13364;49.084;9.978;2024-02-15T20:39:24;10.30;87.60
25438;DHT22;13364;49.084;9.978;2024-02-15T20:41:52;10.30;87.40
25438;DHT22;13364;49.084;9.978;2024-02-15T20:44:19;10.30;87.30
25438;DHT22;13364;49.084;9.978;2024-02-15T20:46:45;10.30;87.30
25438;DHT22;13364;49.084;9.978;2024-02-15T20:49:13;10.30;87.20
25438;DHT22;13364;49.084;9.978;2024-02-15T20:51:40;10.30;87.20
25438;DHT22;13364;49.084;9.978;2024-02-15T20:54:07;10.30;87.10
25438;DHT22;13364;49.084;9.978;2024-02-15T20:56:34;10.30;87.10
25438;DHT22;13364;49.084;9.978;2024-02-15T20:59:03;10.30;86.90
25438;DHT22;13364;49.084;9.978;2024-02-15T21:01:31;10.30;86.80
25438;DHT22;13364;49.084;9.978;2024-02-15T21:04:02;10.20;86.90
25438;DHT22;13364;49.084;9.978;2024-02-15T21:06:31;10.20;86.90